Time;durP1;ratioP1;P1;durP2;ratioP2;P2;SDS_P1;SDS_P2;PMS_P1;PMS_P2;Temp;Humidity;BMP_temperature;BMP_pressure;BME280_temperature;BME280_humidity;BME280_pressure;Samples;Min_cycle;Max_cycle;Signal;HPM_P1;HPM_P2
2022/11/05 00:09:29;;;;;;;19.70;10.00;;;7.90;99.90;;;;;;5008330;28;20346;-49
2022/11/05 00:17:25;;;;;;;17.95;9.60;;;7.90;99.90;;;;;;5033281;28;20435;-46
2022/11/05 00:19:50;;;;;;;14.65;9.30;;;7.90;99.90;;;;;;5050564;28;20108;-46
2022/11/05 00:25:13;;;;;;;15.77;10.02;;;7.80;99.90;;;;;;5008487;28;20483;-46
2022/11/05 00:27:40;;;;;;;20.50;11.05;;;7.80;99.90;;;;;;5031168;28;20017;-47
2022/11/05 00:30:06;;;;;;;18.15;11.05;;;7.70;99.90;;;;;;5041409;28;20025;-50
2022/11/05 00:32:32;;;;;;;21.15;10.48;;;7.70;99.90;;;;;;5051286;28;20029;-47
2022/11/05 00:34:58;;;;;;;20.30;10.25;;;7.80;99.90;;;;;;5051641;28;20028;-48
2022/11/05 00:37:25;;;;;;;17.08;10.20;;;7.70;99.90;;;;;;5051692;28;20493;-48
2022/11/05 00:39:51;;;;;;;18.67;10.52;;;7.70;99.90;;;;;;5051687;28;20033;-46
2022/11/05 00:45:01;;;;;;;20.65;11.20;;;7.70;99.90;;;;;;5051686;28;20067;-46
2022/11/05 00:50:11;;;;;;;19.77;10.80;;;7.70;99.90;;;;;;5040365;28;20032;-47
2022/11/05 00:52:55;;;;;;;26.27;11.57;;;7.70;99.90;;;;;;5033130;28;20036;-46
2022/11/05 00:55:33;;;;;;;22.25;12.20;;;7.70;99.90;;;;;;5051291;28;20025;-46
2022/11/05 00:58:00;;;;;;;20.70;12.50;;;7.60;99.90;;;;;;5050965;28;20037;-45
2022/11/05 01:00:28;;;;;;;29.20;11.60;;;7.60;99.90;;;;;;5033073;28;20098;-46
2022/11/05 01:02:57;;;;;;;21.30;11.93;;;7.60;99.90;;;;;;5050393;28;20017;-46
2022/11/05 01:05:23;;;;;;;24.95;12.68;;;7.60;99.90;;;;;;5050759;28;20048;-46
2022/11/05 01:07:50;;;;;;;19.88;11.07;;;7.60;99.90;;;;;;5033200;28;20640;-47
2022/11/05 01:10:16;;;;;;;26.10;13.50;;;7.50;99.90;;;;;;5050937;28;20068;-49
2022/11/05 01:12:41;;;;;;;23.45;11.43;;;7.50;99.90;;;;;;5032752;28;20053;-46
2022/11/05 01:15:07;;;;;;;23.92;12.88;;;7.50;99.90;;;;;;5044146;28;20029;-47
2022/11/05 01:17:33;;;;;;;24.98;12.48;;;7.40;99.90;;;;;;5043770;28;20121;-49
2022/11/05 01:19:58;;;;;;;25.38;13.70;;;7.40;99.90;;;;;;5050368;28;20485;-49
2022/11/05 01:22:24;;;;;;;22.65;12.48;;;7.40;99.90;;;;;;5042877;28;20025;-46
2022/11/05 01:24:49;;;;;;;22.13;12.68;;;7.40;99.90;;;;;;5041859;28;20067;-46
2022/11/05 01:27:15;;;;;;;26.45;12.93;;;7.30;99.90;;;;;;5050811;28;20079;-46
2022/11/05 01:29:41;;;;;;;29.63;13.38;;;7.30;99.90;;;;;;5049714;28;20032;-48
2022/11/05 01:32:06;;;;;;;19.23;11.95;;;7.30;99.90;;;;;;5049976;28;20040;-50
2022/11/05 01:34:32;;;;;;;21.58;12.20;;;7.30;99.90;;;;;;5050217;28;20029;-46
2022/11/05 01:36:57;;;;;;;20.80;11.98;;;7.30;99.90;;;;;;5032268;28;20033;-46
2022/11/05 01:39:22;;;;;;;25.45;13.25;;;7.20;99.90;;;;;;5050395;28;20033;-47
2022/11/05 01:41:48;;;;;;;25.80;11.88;;;7.20;99.90;;;;;;5049737;28;20386;-46
2022/11/05 01:45:05;;;;;;;29.52;13.00;;;7.20;99.90;;;;;;5050102;28;20021;-47
2022/11/05 01:47:52;;;;;;;21.58;13.10;;;7.20;99.90;;;;;;5005383;28;20033;-48
2022/11/05 01:50:35;;;;;;;24.20;13.05;;;7.10;99.90;;;;;;5050371;28;20544;-47
2022/11/05 01:53:35;;;;;;;24.25;13.38;;;7.10;99.90;;;;;;5042865;28;20490;-47
2022/11/05 01:56:13;;;;;;;23.50;12.13;;;7.10;99.90;;;;;;5040375;28;20021;-47
2022/11/05 01:59:05;;;;;;;33.25;14.35;;;7.10;99.90;;;;;;5026085;28;20044;-47
2022/11/05 02:01:30;;;;;;;25.30;14.43;;;7.10;99.90;;;;;;5049458;28;20029;-49
2022/11/05 02:04:00;;;;;;;25.52;14.45;;;7.00;99.90;;;;;;5049727;28;20054;-46
2022/11/05 02:06:27;;;;;;;24.98;13.25;;;7.00;99.90;;;;;;5031900;28;20098;-47
2022/11/05 02:08:59;;;;;;;26.92;14.45;;;7.00;99.90;;;;;;5049821;28;20394;-46
2022/11/05 02:11:25;;;;;;;27.40;14.90;;;7.00;99.90;;;;;;5049240;28;20028;-48
2022/11/05 02:13:50;;;;;;;29.70;14.43;;;7.00;99.90;;;;;;5047194;28;20055;-49
2022/11/05 02:16:33;;;;;;;29.38;14.82;;;6.90;99.90;;;;;;5039615;28;20116;-45
2022/11/05 02:19:24;;;;;;;33.55;16.77;;;7.00;99.90;;;;;;5049410;28;20028;-46
2022/11/05 02:22:14;;;;;;;28.83;15.90;;;6.90;99.90;;;;;;5049142;28;20036;-49
2022/11/05 02:24:55;;;;;;;28.33;15.18;;;7.00;99.90;;;;;;5049644;28;20702;-46
2022/11/05 02:27:45;;;;;;;26.48;14.75;;;6.90;99.90;;;;;;5049887;28;20039;-47
2022/11/05 02:30:41;;;;;;;35.55;16.13;;;6.90;99.90;;;;;;5049593;28;20024;-48
2022/11/05 02:33:29;;;;;;;28.65;15.05;;;6.90;99.90;;;;;;5044548;28;20021;-47
2022/11/05 02:36:21;;;;;;;36.03;15.00;;;6.90;99.90;;;;;;5023235;28;20041;-46
2022/11/05 02:39:11;;;;;;;35.47;16.88;;;6.90;99.90;;;;;;5049468;28;20441;-47
2022/11/05 02:42:05;;;;;;;32.83;15.30;;;6.90;99.90;;;;;;5047756;28;20032;-47
2022/11/05 02:44:50;;;;;;;35.33;17.00;;;6.90;99.90;;;;;;5033923;28;20081;-47
2022/11/05 02:47:45;;;;;;;34.90;16.63;;;6.90;99.90;;;;;;5048940;28;20049;-49
2022/11/05 02:50:19;;;;;;;31.40;15.13;;;6.90;99.90;;;;;;5048958;28;20056;-47
2022/11/05 02:53:07;;;;;;;31.73;16.27;;;6.90;99.90;;;;;;5048826;28;20025;-48
2022/11/05 02:55:38;;;;;;;34.65;16.95;;;6.90;99.90;;;;;;5027731;28;20025;-47
2022/11/05 02:58:05;;;;;;;30.45;15.77;;;6.90;99.90;;;;;;5038106;28;20041;-46
2022/11/05 03:00:36;;;;;;;35.78;17.02;;;6.90;99.90;;;;;;5048764;28;20123;-46
2022/11/05 03:03:04;;;;;;;36.58;16.98;;;6.90;99.90;;;;;;5048374;28;20018;-47
2022/11/05 03:06:00;;;;;;;39.78;17.17;;;6.90;99.90;;;;;;5048990;28;20478;-45
2022/11/05 03:08:53;;;;;;;32.25;18.05;;;6.90;99.90;;;;;;5037893;28;20072;-46
2022/11/05 03:11:25;;;;;;;32.88;16.63;;;6.90;99.90;;;;;;5048213;28;20033;-47
2022/11/05 03:14:09;;;;;;;37.38;17.10;;;6.90;99.90;;;;;;5046981;28;20100;-46
2022/11/05 03:16:45;;;;;;;44.45;18.38;;;6.90;99.90;;;;;;5030861;28;20124;-46
2022/11/05 03:19:25;;;;;;;42.42;17.48;;;6.90;99.90;;;;;;5028593;28;20497;-47
2022/11/05 03:22:02;;;;;;;36.72;16.73;;;6.90;99.90;;;;;;5034493;28;20381;-46
2022/11/05 03:24:34;;;;;;;36.58;17.70;;;6.90;99.90;;;;;;5030161;28;20171;-48
2022/11/05 03:27:08;;;;;;;35.05;18.38;;;6.80;99.90;;;;;;5015737;28;20033;-46
2022/11/05 03:29:41;;;;;;;46.08;21.02;;;6.80;99.90;;;;;;5029328;28;20164;-46
2022/11/05 03:32:10;;;;;;;40.97;17.75;;;6.90;99.90;;;;;;5024937;28;20120;-46
2022/11/05 03:34:44;;;;;;;36.92;18.25;;;6.80;99.90;;;;;;5016285;28;20045;-47
2022/11/05 03:37:10;;;;;;;42.15;18.45;;;6.80;99.90;;;;;;5016541;28;20044;-46
2022/11/05 03:39:43;;;;;;;35.05;17.70;;;6.80;99.90;;;;;;5019623;28;20025;-46
2022/11/05 03:42:13;;;;;;;37.15;17.92;;;6.80;99.90;;;;;;5020206;28;20025;-48
2022/11/05 03:44:44;;;;;;;37.50;16.70;;;6.80;99.90;;;;;;5028541;28;20096;-46
2022/11/05 03:47:15;;;;;;;41.40;18.13;;;6.80;99.90;;;;;;5028552;28;20014;-46
2022/11/05 03:50:06;;;;;;;35.83;17.77;;;6.80;99.90;;;;;;5020740;28;20109;-46
2022/11/05 03:52:40;;;;;;;37.33;17.42;;;6.80;99.90;;;;;;5015833;28;20513;-47
2022/11/05 03:55:06;;;;;;;41.33;18.02;;;6.80;99.90;;;;;;5024533;28;20546;-46
2022/11/05 03:57:35;;;;;;;41.30;18.50;;;6.70;99.90;;;;;;5019185;28;20180;-45
2022/11/05 04:00:00;;;;;;;38.00;18.40;;;6.70;99.90;;;;;;5021357;28;20029;-49
2022/11/05 04:02:26;;;;;;;44.97;19.73;;;6.70;99.90;;;;;;5031593;28;20550;-46
2022/11/05 04:04:52;;;;;;;34.10;17.23;;;6.70;99.90;;;;;;5032130;28;20430;-48
2022/11/05 04:17:05;;;;;;;40.58;18.92;;;6.70;99.90;;;;;;5039672;28;20088;-46
2022/11/05 04:18:16;;;;;;;36.38;17.38;;;6.70;99.90;;;;;;5031959;28;20025;-48
2022/11/05 04:26:09;;;;;;;34.10;15.85;;;6.60;99.90;;;;;;5043433;28;20028;-48
2022/11/05 04:31:19;;;;;;;32.58;17.65;;;6.60;99.90;;;;;;5050899;28;20108;-46
2022/11/05 04:33:44;;;;;;;37.00;16.80;;;6.60;99.90;;;;;;5051369;28;20025;-46
2022/11/05 04:36:10;;;;;;;32.03;14.98;;;6.60;99.90;;;;;;5051464;28;20025;-48
2022/11/05 04:38:35;;;;;;;41.55;16.90;;;6.50;99.90;;;;;;5051430;28;20513;-48
2022/11/05 04:41:15;;;;;;;41.20;18.25;;;6.50;99.90;;;;;;5051258;28;20029;-47
2022/11/05 04:43:41;;;;;;;30.15;13.38;;;6.50;99.90;;;;;;5051066;28;20100;-47
2022/11/05 04:46:08;;;;;;;37.95;17.60;;;6.40;99.90;;;;;;5051048;28;20108;-46
2022/11/05 04:48:33;;;;;;;36.15;17.52;;;6.40;99.90;;;;;;5051124;28;20029;-48
2022/11/05 04:50:59;;;;;;;40.17;19.15;;;6.40;99.90;;;;;;5033063;28;20079;-46
2022/11/05 04:53:24;;;;;;;41.33;19.75;;;6.40;99.90;;;;;;5044822;28;20029;-48
2022/11/05 04:55:50;;;;;;;45.38;19.02;;;6.40;99.90;;;;;;5042502;28;20490;-49
2022/11/05 04:58:15;;;;;;;42.53;20.15;;;6.40;99.90;;;;;;5050867;28;20033;-46
2022/11/05 05:00:41;;;;;;;37.35;17.85;;;6.40;99.90;;;;;;5050851;28;20033;-46
2022/11/05 05:03:07;;;;;;;38.83;18.00;;;6.40;99.90;;;;;;5050435;28;20045;-46
2022/11/05 05:05:32;;;;;;;47.90;19.25;;;6.40;99.90;;;;;;5050119;28;20025;-47
2022/11/05 05:08:04;;;;;;;41.67;17.30;;;6.40;99.90;;;;;;5051199;28;20508;-46
2022/11/05 05:10:31;;;;;;;54.50;19.13;;;6.40;99.90;;;;;;5050925;28;20032;-46
2022/11/05 05:12:56;;;;;;;38.97;17.63;;;6.40;99.90;;;;;;5032469;28;20431;-46
2022/11/05 05:15:22;;;;;;;38.83;17.88;;;6.40;99.90;;;;;;5050529;28;20033;-46
2022/11/05 05:17:51;;;;;;;39.50;17.17;;;6.40;99.90;;;;;;5044152;28;20041;-46
2022/11/05 05:23:03;;;;;;;30.13;16.63;;;6.40;99.90;;;;;;5050417;28;20039;-47
2022/11/05 05:25:28;;;;;;;35.67;16.42;;;6.30;99.90;;;;;;5050545;28;20108;-47
2022/11/05 05:27:57;;;;;;;33.28;16.10;;;6.30;99.90;;;;;;5050635;28;20104;-46
2022/11/05 05:30:23;;;;;;;40.33;17.52;;;6.30;99.90;;;;;;5050133;28;20474;-46
2022/11/05 05:32:48;;;;;;;34.35;15.55;;;6.30;99.90;;;;;;5049727;28;20094;-46
2022/11/05 05:35:14;;;;;;;35.83;16.27;;;6.30;99.90;;;;;;5049281;28;20397;-46
2022/11/05 05:37:39;;;;;;;41.35;17.65;;;6.40;99.90;;;;;;5050403;28;20108;-46
2022/11/05 05:40:05;;;;;;;34.13;16.10;;;6.30;99.90;;;;;;5050515;28;20021;-46
2022/11/05 05:42:31;;;;;;;32.50;15.73;;;6.30;99.90;;;;;;5049899;28;20516;-46
2022/11/05 05:44:57;;;;;;;34.75;15.30;;;6.30;99.90;;;;;;5050363;28;20064;-46
2022/11/05 05:47:22;;;;;;;31.70;14.52;;;6.30;99.90;;;;;;5048485;28;20025;-46
2022/11/05 05:49:48;;;;;;;37.97;13.77;;;6.30;99.90;;;;;;5037915;28;20033;-46
2022/11/05 05:52:13;;;;;;;31.55;13.85;;;6.30;99.90;;;;;;5048411;28;20028;-46
2022/11/05 05:54:38;;;;;;;31.38;14.57;;;6.30;99.90;;;;;;5050253;28;20100;-47
2022/11/05 05:57:04;;;;;;;36.25;15.80;;;6.30;99.90;;;;;;5032011;28;20037;-46
2022/11/05 05:59:29;;;;;;;29.05;12.77;;;6.30;99.90;;;;;;5031927;28;20464;-46
2022/11/05 06:01:55;;;;;;;37.67;13.95;;;6.30;99.90;;;;;;5049478;28;20029;-46
2022/11/05 06:04:20;;;;;;;33.28;13.60;;;6.30;99.90;;;;;;5049480;28;20025;-47
2022/11/05 06:06:46;;;;;;;36.67;13.45;;;6.30;99.90;;;;;;5050188;28;20446;-47
2022/11/05 06:09:12;;;;;;;38.38;14.55;;;6.30;99.90;;;;;;5049847;28;20122;-48
2022/11/05 06:11:38;;;;;;;31.52;13.27;;;6.30;99.90;;;;;;5049527;28;20493;-48
2022/11/05 06:14:03;;;;;;;27.45;12.27;;;6.30;99.90;;;;;;5049757;28;20041;-47
2022/11/05 06:16:34;;;;;;;32.47;13.82;;;6.30;99.90;;;;;;5050128;28;20028;-49
2022/11/05 06:19:00;;;;;;;;;;;6.30;99.90;;;;;;5042327;28;20029;-47
2022/11/05 06:21:25;;;;;;;30.55;12.27;;;6.30;99.90;;;;;;5041533;28;19909;-46
2022/11/05 06:23:51;;;;;;;32.65;13.18;;;6.30;99.90;;;;;;5049605;28;20017;-46
2022/11/05 06:26:17;;;;;;;26.20;12.32;;;6.30;99.90;;;;;;5050418;28;20053;-47
2022/11/05 06:28:43;;;;;;;32.13;12.00;;;6.30;99.90;;;;;;5032974;28;20048;-48
2022/11/05 06:31:10;;;;;;;24.63;12.30;;;6.30;99.90;;;;;;5040740;28;20040;-46
2022/11/05 06:33:36;;;;;;;33.40;11.93;;;6.30;99.90;;;;;;5044007;28;20075;-48
2022/11/05 06:36:02;;;;;;;24.90;12.35;;;6.30;99.90;;;;;;5050306;28;20029;-46
2022/11/05 06:38:31;;;;;;;27.23;11.13;;;6.30;99.90;;;;;;5030359;28;20025;-46
2022/11/05 06:40:58;;;;;;;25.73;10.80;;;6.30;99.90;;;;;;5030041;28;20026;-46
2022/11/05 06:43:24;;;;;;;29.80;10.63;;;6.30;99.90;;;;;;5029510;28;20020;-46
2022/11/05 06:45:49;;;;;;;29.20;11.40;;;6.30;99.90;;;;;;5030536;28;20100;-52
2022/11/05 06:48:15;;;;;;;22.48;11.07;;;6.30;99.90;;;;;;5019580;28;20028;-47
2022/11/05 06:50:44;;;;;;;26.60;11.75;;;6.30;99.90;;;;;;5044690;28;20021;-48
2022/11/05 06:53:10;;;;;;;34.65;11.77;;;6.30;99.90;;;;;;5032157;28;20544;-47
2022/11/05 06:55:35;;;;;;;31.20;10.93;;;6.30;99.90;;;;;;5050399;28;20021;-49
2022/11/05 06:58:00;;;;;;;29.75;12.57;;;6.30;99.90;;;;;;5050267;28;20032;-47
2022/11/05 07:00:26;;;;;;;30.50;11.02;;;6.30;99.90;;;;;;5050158;28;20017;-48
2022/11/05 07:02:54;;;;;;;27.83;11.90;;;6.40;99.90;;;;;;5049572;28;20130;-49
2022/11/05 07:05:20;;;;;;;23.85;10.20;;;6.40;99.90;;;;;;5050437;28;20059;-44
2022/11/05 07:07:45;;;;;;;21.98;10.25;;;6.40;99.90;;;;;;5050402;28;20058;-48
2022/11/05 07:10:14;;;;;;;21.67;10.88;;;6.40;99.90;;;;;;5050451;28;20462;-45
2022/11/05 07:12:39;;;;;;;32.83;11.95;;;6.50;99.90;;;;;;5049939;28;20112;-44
2022/11/05 07:15:06;;;;;;;26.10;10.80;;;6.50;99.90;;;;;;5050133;28;20484;-48
2022/11/05 07:17:31;;;;;;;21.63;8.80;;;6.50;99.90;;;;;;5045191;28;20063;-47
2022/11/05 07:19:57;;;;;;;32.28;9.88;;;6.60;99.90;;;;;;5035283;28;20372;-47
2022/11/05 07:22:22;;;;;;;29.50;10.07;;;6.60;99.90;;;;;;5049676;28;20032;-50
2022/11/05 07:24:49;;;;;;;22.40;9.57;;;6.60;99.90;;;;;;5044404;28;20065;-47
2022/11/05 07:27:16;;;;;;;16.15;8.20;;;6.70;99.90;;;;;;5024018;28;20384;-47
2022/11/05 07:29:41;;;;;;;24.15;9.25;;;6.70;99.90;;;;;;5056733;28;20025;-47
2022/11/05 07:32:07;;;;;;;21.95;9.20;;;6.80;99.90;;;;;;5045864;28;20032;-47
2022/11/05 07:34:32;;;;;;;22.60;9.27;;;6.80;99.90;;;;;;5047977;28;20036;-49
2022/11/05 07:36:58;;;;;;;21.65;8.65;;;6.90;99.90;;;;;;5055326;28;20464;-47
2022/11/05 07:39:23;;;;;;;35.10;10.30;;;6.80;99.90;;;;;;5055407;28;20108;-46
2022/11/05 07:41:53;;;;;;;23.35;8.85;;;6.90;99.90;;;;;;5054763;28;20032;-49
2022/11/05 07:44:19;;;;;;;17.25;8.32;;;7.00;99.90;;;;;;5055156;28;20163;-47
2022/11/05 07:46:44;;;;;;;24.10;9.32;;;7.00;99.90;;;;;;5055365;28;20112;-48
2022/11/05 07:49:10;;;;;;;22.77;9.40;;;7.00;99.90;;;;;;5055393;28;20051;-47
2022/11/05 07:51:35;;;;;;;24.58;9.02;;;7.10;99.90;;;;;;5055723;28;20025;-47
2022/11/05 07:54:01;;;;;;;21.65;8.95;;;7.10;99.90;;;;;;5056479;28;20033;-47
2022/11/05 07:56:26;;;;;;;26.90;10.15;;;7.20;99.90;;;;;;5056381;28;20124;-47
2022/11/05 07:58:52;;;;;;;19.05;8.82;;;7.20;99.90;;;;;;5056356;28;20055;-44
2022/11/05 08:01:17;;;;;;;18.15;8.10;;;7.30;99.90;;;;;;5055803;28;20029;-46
2022/11/05 08:03:43;;;;;;;20.55;9.55;;;7.30;99.90;;;;;;5043844;28;20080;-45
2022/11/05 08:06:09;;;;;;;22.98;9.93;;;7.40;99.90;;;;;;5038861;28;20060;-46
2022/11/05 08:08:34;;;;;;;24.20;8.85;;;7.40;99.90;;;;;;5027918;28;20060;-47
2022/11/05 08:11:05;;;;;;;23.88;9.50;;;7.50;99.90;;;;;;5028157;28;20037;-46
2022/11/05 08:13:31;;;;;;;18.25;8.93;;;7.50;99.90;;;;;;5034330;28;20073;-47
2022/11/05 08:15:57;;;;;;;23.83;9.23;;;7.50;99.90;;;;;;5024629;28;20025;-46
2022/11/05 08:18:22;;;;;;;25.02;10.45;;;7.60;99.90;;;;;;5046565;28;20021;-48
2022/11/05 08:20:48;;;;;;;21.48;9.35;;;7.60;99.90;;;;;;5055166;28;20755;-46
2022/11/05 08:23:13;;;;;;;25.30;9.80;;;7.70;99.90;;;;;;5055035;28;20032;-45
2022/11/05 08:25:39;;;;;;;26.45;9.77;;;7.70;99.90;;;;;;5038075;28;20025;-46
2022/11/05 08:28:09;;;;;;;16.35;9.80;;;7.80;99.90;;;;;;5049955;28;20010;-47
2022/11/05 08:30:35;;;;;;;24.42;8.98;;;7.80;99.90;;;;;;5017724;28;20068;-47
2022/11/05 08:33:06;;;;;;;24.58;8.30;;;7.90;99.90;;;;;;5026145;28;20030;-46
2022/11/05 08:35:33;;;;;;;20.50;9.07;;;8.00;99.90;;;;;;5056224;28;20025;-47
2022/11/05 08:38:01;;;;;;;24.67;8.02;;;8.00;99.90;;;;;;5056330;28;20382;-46
2022/11/05 08:40:28;;;;;;;20.95;9.15;;;8.10;99.90;;;;;;5031022;28;20703;-45
2022/11/05 08:42:58;;;;;;;16.65;7.18;;;8.10;99.90;;;;;;5040582;28;20044;-47
2022/11/05 08:45:25;;;;;;;17.27;7.35;;;8.20;99.90;;;;;;5013302;28;20634;-47
2022/11/05 08:47:57;;;;;;;17.55;6.60;;;8.30;99.90;;;;;;5012822;28;20360;-47
2022/11/05 08:50:22;;;;;;;17.67;7.82;;;8.40;99.90;;;;;;5013031;28;20022;-48
2022/11/05 08:52:47;;;;;;;20.17;8.32;;;8.50;99.90;;;;;;5012332;28;20486;-47
2022/11/05 08:55:17;;;;;;;19.55;7.55;;;8.50;99.90;;;;;;5012589;28;20030;-47
2022/11/05 08:57:44;;;;;;;16.15;6.60;;;8.60;99.90;;;;;;5012024;28;20034;-46
2022/11/05 09:00:11;;;;;;;21.00;7.30;;;8.70;99.90;;;;;;5011349;28;20030;-46
2022/11/05 09:02:36;;;;;;;21.55;8.00;;;8.80;99.90;;;;;;4993400;28;20030;-45
2022/11/05 09:05:02;;;;;;;22.25;7.55;;;8.90;99.90;;;;;;5011202;28;20490;-45
